createdAt,value
2019-04-05T00:01:04.605Z,17.20
2019-04-05T00:02:09.173Z,18.50
2019-04-05T00:03:13.383Z,20.15
2019-04-05T00:04:17.320Z,19.30
2019-04-05T00:05:21.241Z,18.82
2019-04-05T00:06:25.252Z,18.40
2019-04-05T00:07:29.183Z,19.42
2019-04-05T00:08:33.747Z,18.27
2019-04-05T00:09:38.013Z,19.30
2019-04-05T00:10:42.004Z,20.70
2019-04-05T00:11:46.186Z,20.30
2019-04-05T00:12:50.751Z,19.40
2019-04-05T00:13:55.187Z,19.12
2019-04-05T00:14:59.033Z,18.82
2019-04-05T00:16:03.027Z,18.30
2019-04-05T00:17:06.960Z,19.42
2019-04-05T00:18:10.804Z,18.70
2019-04-05T00:19:14.795Z,18.35
2019-04-05T00:20:18.790Z,18.62
2019-04-05T00:21:23.041Z,18.10
2019-04-05T00:22:27.273Z,17.12
2019-04-05T00:23:31.191Z,18.07
2019-04-05T00:24:35.436Z,18.17
2019-04-05T00:25:40.043Z,18.07
2019-04-05T00:26:44.299Z,19.30
2019-04-05T00:27:48.911Z,18.48
2019-04-05T00:28:53.184Z,18.87
2019-04-05T00:29:57.571Z,20.37
2019-04-05T00:31:01.585Z,18.07
2019-04-05T00:32:05.591Z,19.52
2019-04-05T00:33:10.149Z,18.87
2019-04-05T00:34:14.339Z,19.27
2019-04-05T00:35:18.560Z,20.05
2019-04-05T00:36:22.971Z,18.67
2019-04-05T00:37:26.827Z,19.42
2019-04-05T00:38:30.674Z,22.48
2019-04-05T00:39:34.850Z,20.08
2019-04-05T00:40:39.075Z,21.80
2019-04-05T00:41:43.586Z,21.30
2019-04-05T00:42:48.003Z,22.17
2019-04-05T00:43:51.981Z,23.18
2019-04-05T00:44:55.900Z,25.08
2019-04-05T00:46:00.135Z,20.97
2019-04-05T00:47:04.291Z,22.13
2019-04-05T00:48:11.299Z,20.70
2019-04-05T00:49:15.785Z,21.62
2019-04-05T00:50:20.469Z,22.40
2019-04-05T00:51:24.870Z,21.27
2019-04-05T00:52:29.368Z,25.45
2019-04-05T00:53:33.597Z,23.62
2019-04-05T00:54:37.813Z,21.42
2019-04-05T00:55:42.038Z,21.87
2019-04-05T00:56:46.275Z,23.00
2019-04-05T00:57:50.768Z,21.23
2019-04-05T00:58:55.423Z,24.07
2019-04-05T00:59:59.413Z,21.25
2019-04-05T01:01:03.475Z,22.62
2019-04-05T01:02:07.763Z,23.02
2019-04-05T01:03:13.287Z,23.83
2019-04-05T01:04:17.785Z,23.77
2019-04-05T01:05:21.953Z,22.95
2019-04-05T01:06:26.724Z,22.27
2019-04-05T01:07:30.711Z,22.60
2019-04-05T01:08:34.624Z,23.27
2019-04-05T01:09:39.102Z,22.35
2019-04-05T01:10:43.337Z,24.85
2019-04-05T01:11:47.559Z,23.18
2019-04-05T01:12:52.114Z,24.63
2019-04-05T01:13:57.179Z,25.35
2019-04-05T01:15:01.490Z,24.25
2019-04-05T01:16:05.752Z,24.63
2019-04-05T01:17:09.665Z,29.85
2019-04-05T01:18:13.919Z,25.97
2019-04-05T01:19:19.623Z,28.27
2019-04-05T01:20:25.151Z,27.20
2019-04-05T01:21:33.355Z,26.30
2019-04-05T01:22:38.109Z,28.52
2019-04-05T01:23:43.536Z,27.07
2019-04-05T01:24:47.524Z,29.75
2019-04-05T01:25:54.099Z,27.15
2019-04-05T01:27:00.416Z,26.10
2019-04-05T01:28:04.511Z,23.70
2019-04-05T01:29:08.504Z,23.70
2019-04-05T01:30:15.125Z,27.58
2019-04-05T01:31:19.678Z,27.27
2019-04-05T01:32:24.716Z,27.02
2019-04-05T01:33:29.021Z,25.68
2019-04-05T01:34:33.013Z,26.40
2019-04-05T01:35:37.925Z,24.98
2019-04-05T01:36:42.452Z,27.42
2019-04-05T01:37:47.187Z,26.15
2019-04-05T01:38:51.398Z,24.77
2019-04-05T01:39:57.078Z,27.02
2019-04-05T01:41:01.101Z,25.00
2019-04-05T01:42:05.093Z,26.93
2019-04-05T01:43:09.467Z,25.45
2019-04-05T01:44:13.799Z,25.70
2019-04-05T01:45:17.782Z,27.15
2019-04-05T01:46:21.769Z,27.37
2019-04-05T01:47:25.996Z,27.25
2019-04-05T01:48:29.917Z,24.87
2019-04-05T01:49:34.396Z,24.27
2019-04-05T01:50:38.381Z,28.40
2019-04-05T01:51:42.733Z,25.85
2019-04-05T01:52:47.439Z,29.02
2019-04-05T01:53:51.676Z,26.80
2019-04-05T01:54:55.835Z,27.82
2019-04-05T01:56:00.075Z,26.60
2019-04-05T01:57:04.053Z,32.20
2019-04-05T01:58:08.551Z,27.82
2019-04-05T01:59:12.955Z,29.77
2019-04-05T02:00:17.041Z,29.75
2019-04-05T02:01:21.270Z,29.32
2019-04-05T02:02:25.744Z,28.70
2019-04-05T02:03:29.992Z,29.75
2019-04-05T02:04:33.903Z,28.12
2019-04-05T02:05:38.122Z,30.70
2019-04-05T02:06:42.970Z,28.75
2019-04-05T02:07:47.717Z,31.00
2019-04-05T02:08:51.911Z,32.35
2019-04-05T02:09:55.898Z,30.25
2019-04-05T02:11:00.429Z,31.82
2019-04-05T02:12:04.411Z,30.82
2019-04-05T02:13:08.407Z,31.95
2019-04-05T02:14:12.395Z,30.65
2019-04-05T02:15:27.274Z,33.67
2019-04-05T02:16:31.778Z,31.48
2019-04-05T02:17:36.143Z,33.05
2019-04-05T02:18:40.126Z,30.00
2019-04-05T02:19:44.364Z,29.18
2019-04-05T02:20:48.375Z,32.10
2019-04-05T02:21:52.611Z,29.20
2019-04-05T02:22:56.848Z,30.08
2019-04-05T02:24:01.340Z,34.05
2019-04-05T02:25:05.467Z,28.40
2019-04-05T02:26:09.455Z,28.92
2019-04-05T02:27:13.444Z,27.05
2019-04-05T02:28:17.719Z,29.07
2019-04-05T02:29:22.186Z,28.42
2019-04-05T02:30:26.946Z,29.70
2019-04-05T02:31:31.512Z,28.42
2019-04-05T02:32:35.553Z,29.90
2019-04-05T02:33:40.201Z,30.05
2019-04-05T02:34:44.167Z,28.10
2019-04-05T02:35:48.757Z,28.87
2019-04-05T02:36:52.784Z,30.00
2019-04-05T02:37:57.378Z,30.30
2019-04-05T02:39:01.429Z,29.32
2019-04-05T02:40:07.291Z,28.07
2019-04-05T02:41:12.733Z,27.95
2019-04-05T02:42:17.676Z,28.98
2019-04-05T02:43:24.428Z,30.82
2019-04-05T02:44:31.637Z,30.12
2019-04-05T02:45:37.772Z,30.17
2019-04-05T02:46:44.396Z,31.75
2019-04-05T02:47:53.193Z,31.20
2019-04-05T02:48:58.073Z,30.80
2019-04-05T02:50:02.435Z,30.43
2019-04-05T02:51:09.550Z,32.08
2019-04-05T02:52:17.504Z,31.12
2019-04-05T02:53:21.901Z,31.65
2019-04-05T02:54:27.660Z,32.30
2019-04-05T02:55:33.236Z,35.68
2019-04-05T02:56:37.895Z,31.27
2019-04-05T02:57:45.009Z,33.85
2019-04-05T02:58:49.410Z,34.88
2019-04-05T02:59:54.626Z,31.87
2019-04-05T03:00:59.627Z,35.80
2019-04-05T03:02:05.451Z,32.93
2019-04-05T03:03:10.247Z,35.55
2019-04-05T03:04:15.084Z,34.75
2019-04-05T03:05:22.316Z,37.23
2019-04-05T03:06:26.640Z,32.75
2019-04-05T03:07:30.629Z,35.70
2019-04-05T03:08:34.957Z,32.70
2019-04-05T03:09:39.143Z,31.15
2019-04-05T03:11:06.262Z,34.35
2019-04-05T03:12:10.377Z,32.83
2019-04-05T03:13:14.474Z,32.35
2019-04-05T03:14:20.992Z,32.13
2019-04-05T03:15:25.218Z,34.50
2019-04-05T03:16:40.860Z,33.73
2019-04-05T03:17:39.619Z,32.80
2019-04-05T03:18:47.917Z,34.20
2019-04-05T03:19:54.151Z,34.15
2019-04-05T03:21:01.919Z,35.20
2019-04-05T03:22:09.288Z,34.05
2019-04-05T03:23:14.104Z,33.25
2019-04-05T03:24:21.504Z,34.48
2019-04-05T03:25:25.591Z,34.33
2019-04-05T03:26:32.929Z,33.90
2019-04-05T03:27:39.142Z,35.63
2019-04-05T03:28:46.378Z,35.78
2019-04-05T03:29:50.992Z,33.15
2019-04-05T03:30:55.245Z,31.85
2019-04-05T03:32:00.264Z,32.55
2019-04-05T03:33:05.106Z,34.00
2019-04-05T03:34:10.016Z,32.70
2019-04-05T03:35:13.990Z,31.65
2019-04-05T03:36:18.661Z,32.73
2019-04-05T03:37:22.765Z,33.20
2019-04-05T03:38:26.854Z,34.08
2019-04-05T03:39:31.258Z,38.33
2019-04-05T03:40:35.977Z,33.45
2019-04-05T03:41:40.648Z,33.75
2019-04-05T03:42:44.906Z,30.02
2019-04-05T03:43:49.966Z,31.37
2019-04-05T03:44:54.192Z,29.92
2019-04-05T03:45:58.645Z,31.52
2019-04-05T03:47:02.982Z,31.35
2019-04-05T03:48:08.746Z,33.23
2019-04-05T03:49:12.953Z,31.23
2019-04-05T03:50:17.753Z,29.48
2019-04-05T03:51:22.579Z,30.02
2019-04-05T03:52:26.850Z,27.73
2019-04-05T03:53:30.943Z,28.85
2019-04-05T03:54:35.675Z,29.52
2019-04-05T03:55:40.647Z,30.85
2019-04-05T03:56:45.111Z,30.27
2019-04-05T03:57:49.640Z,32.30
2019-04-05T03:58:53.749Z,29.37
2019-04-05T03:59:58.168Z,29.77
2019-04-05T04:01:02.444Z,31.30
2019-04-05T04:02:06.434Z,32.33
2019-04-05T04:03:10.808Z,29.32
2019-04-05T04:04:14.893Z,31.00
2019-04-05T04:05:19.102Z,31.97
2019-04-05T04:06:24.376Z,32.30
2019-04-05T04:07:28.763Z,30.55
2019-04-05T04:08:32.937Z,30.20
2019-04-05T04:09:37.415Z,30.65
2019-04-05T04:10:41.833Z,32.23
2019-04-05T04:11:46.466Z,28.92
2019-04-05T04:12:51.348Z,29.72
2019-04-05T04:13:55.676Z,29.70
2019-04-05T04:15:14.234Z,30.02
2019-04-05T04:16:19.266Z,33.00
2019-04-05T04:17:23.856Z,33.75
2019-04-05T04:18:28.192Z,31.70
2019-04-05T04:19:32.827Z,31.70
2019-04-05T04:20:41.972Z,30.35
2019-04-05T04:21:54.630Z,32.50
2019-04-05T04:22:59.635Z,31.75
2019-04-05T04:24:04.279Z,32.60
2019-04-05T04:25:08.655Z,34.00
2019-04-05T04:26:12.660Z,36.13
2019-04-05T04:27:17.483Z,32.23
2019-04-05T04:28:22.176Z,32.53
2019-04-05T04:29:26.647Z,30.32
2019-04-05T04:30:31.983Z,32.30
2019-04-05T04:31:36.357Z,30.82
2019-04-05T04:32:40.684Z,33.35
2019-04-05T04:33:44.889Z,32.67
2019-04-05T04:34:48.928Z,31.73
2019-04-05T04:35:53.940Z,33.85
2019-04-05T04:36:59.683Z,29.92
2019-04-05T04:38:04.746Z,30.20
2019-04-05T04:39:08.841Z,32.23
2019-04-05T04:40:13.133Z,31.30
2019-04-05T04:41:17.520Z,31.07
2019-04-05T04:42:22.094Z,31.95
2019-04-05T04:43:27.523Z,32.78
2019-04-05T04:44:31.949Z,35.33
2019-04-05T04:45:36.781Z,35.38
2019-04-05T04:46:41.777Z,33.30
2019-04-05T04:47:46.414Z,28.57
2019-04-05T04:48:50.907Z,29.75
2019-04-05T04:49:58.158Z,27.82
2019-04-05T04:51:03.416Z,26.20
2019-04-05T04:52:07.808Z,26.68
2019-04-05T04:53:11.956Z,27.67
2019-04-05T04:54:16.610Z,27.58
2019-04-05T04:55:20.930Z,23.05
2019-04-05T04:56:25.265Z,24.52
2019-04-05T04:57:29.958Z,25.90
2019-04-05T04:58:34.395Z,28.17
2019-04-05T04:59:38.908Z,26.55
2019-04-05T05:00:43.422Z,28.47
2019-04-05T05:01:47.967Z,27.80
2019-04-05T05:02:52.275Z,24.82
2019-04-05T05:03:56.919Z,27.75
2019-04-05T05:05:01.307Z,29.57
2019-04-05T05:06:05.906Z,30.70
2019-04-05T05:07:10.191Z,29.77
2019-04-05T05:08:14.538Z,29.67
2019-04-05T05:09:19.838Z,25.82
2019-04-05T05:10:24.239Z,29.75
2019-04-05T05:11:28.747Z,24.82
2019-04-05T05:12:33.495Z,24.90
2019-04-05T05:13:37.735Z,22.65
2019-04-05T05:14:42.952Z,26.90
2019-04-05T05:15:47.622Z,24.80
2019-04-05T05:16:52.180Z,27.87
2019-04-05T05:17:58.711Z,26.57
2019-04-05T05:19:02.892Z,27.17
2019-04-05T05:20:08.276Z,26.42
2019-04-05T05:21:12.903Z,27.77
2019-04-05T05:22:17.453Z,28.07
2019-04-05T05:23:21.798Z,31.05
2019-04-05T05:24:26.483Z,28.35
2019-04-05T05:25:31.367Z,33.10
2019-04-05T05:26:35.459Z,30.50
2019-04-05T05:27:39.944Z,28.52
2019-04-05T05:28:44.188Z,26.62
2019-04-05T05:29:48.428Z,23.30
2019-04-05T05:30:53.008Z,24.00
2019-04-05T05:31:57.867Z,26.60
2019-04-05T05:33:02.095Z,25.43
2019-04-05T05:34:06.806Z,22.45
2019-04-05T05:35:10.724Z,22.70
2019-04-05T05:36:15.244Z,23.38
2019-04-05T05:37:20.293Z,22.70
2019-04-05T05:38:24.717Z,23.87
2019-04-05T05:39:28.832Z,28.40
2019-04-05T05:40:35.335Z,27.65
2019-04-05T05:41:39.377Z,25.88
2019-04-05T05:42:43.618Z,25.00
2019-04-05T05:43:47.617Z,24.20
2019-04-05T05:44:51.852Z,22.75
2019-04-05T05:45:56.081Z,26.48
2019-04-05T05:47:00.571Z,25.85
2019-04-05T05:48:04.557Z,26.62
2019-04-05T05:49:08.548Z,24.32
2019-04-05T05:50:13.217Z,27.13
2019-04-05T05:51:17.356Z,29.67
2019-04-05T05:52:21.782Z,31.73
2019-04-05T05:53:26.059Z,27.65
2019-04-05T05:54:29.977Z,24.72
2019-04-05T05:55:34.552Z,21.82
2019-04-05T05:56:38.398Z,24.02
2019-04-05T05:57:42.602Z,24.00
2019-04-05T05:58:46.524Z,25.17
2019-04-05T05:59:50.567Z,26.15
2019-04-05T06:00:54.812Z,24.35
2019-04-05T06:01:59.429Z,25.97
2019-04-05T06:03:06.264Z,24.10
2019-04-05T06:04:12.698Z,25.88
2019-04-05T06:05:16.252Z,24.75
2019-04-05T06:06:20.480Z,25.72
2019-04-05T06:07:24.408Z,26.45
2019-04-05T06:08:29.345Z,24.40
2019-04-05T06:09:33.380Z,25.90
2019-04-05T06:10:37.387Z,29.37
2019-04-05T06:11:41.804Z,25.43
2019-04-05T06:12:46.401Z,25.10
2019-04-05T06:13:50.567Z,26.10
2019-04-05T06:14:54.489Z,25.55
2019-04-05T06:15:58.811Z,26.07
2019-04-05T06:17:03.259Z,25.75
2019-04-05T06:18:07.592Z,29.02
2019-04-05T06:19:11.848Z,25.88
2019-04-05T06:20:18.288Z,24.43
2019-04-05T06:21:22.546Z,26.50
2019-04-05T06:22:26.449Z,25.85
2019-04-05T06:23:33.965Z,26.17
2019-04-05T06:24:36.025Z,25.08
2019-04-05T06:25:40.049Z,27.37
2019-04-05T06:26:43.963Z,21.33
2019-04-05T06:27:47.967Z,28.52
2019-04-05T06:28:52.396Z,26.75
2019-04-05T06:29:56.969Z,23.22
2019-04-05T06:31:01.514Z,23.62
2019-04-05T06:32:05.933Z,24.45
2019-04-05T06:33:10.201Z,23.05
2019-04-05T06:34:14.581Z,24.43
2019-04-05T06:35:18.572Z,23.18
2019-04-05T06:36:22.413Z,23.35
2019-04-05T06:37:26.353Z,23.90
2019-04-05T06:38:30.611Z,25.17
2019-04-05T06:39:34.920Z,22.25
2019-04-05T06:40:41.142Z,24.10
2019-04-05T06:41:45.120Z,27.80
2019-04-05T06:42:49.170Z,22.67
2019-04-05T06:43:53.034Z,24.27
2019-04-05T06:44:57.190Z,24.98
2019-04-05T06:46:01.272Z,24.67
2019-04-05T06:47:05.352Z,28.05
2019-04-05T06:48:19.124Z,26.87
2019-04-05T06:49:14.904Z,27.02
2019-04-05T06:50:18.816Z,36.30
2019-04-05T06:51:22.730Z,31.27
2019-04-05T06:52:26.726Z,28.45
2019-04-05T06:53:30.824Z,36.55
2019-04-05T06:54:35.166Z,40.03
2019-04-05T06:55:39.072Z,29.18
2019-04-05T06:56:42.989Z,29.07
2019-04-05T06:57:47.414Z,29.10
2019-04-05T06:58:51.640Z,28.10
2019-04-05T06:59:56.000Z,28.47
2019-04-05T07:01:00.068Z,26.93
2019-04-05T07:02:03.984Z,27.87
2019-04-05T07:03:08.396Z,32.70
2019-04-05T07:04:12.807Z,29.10
2019-04-05T07:05:16.725Z,28.60
2019-04-05T07:06:20.696Z,30.43
2019-04-05T07:07:24.558Z,28.25
2019-04-05T07:08:29.192Z,25.70
2019-04-05T07:09:34.253Z,27.65
2019-04-05T07:10:38.196Z,28.05
2019-04-05T07:11:42.375Z,29.72
2019-04-05T07:12:46.272Z,25.85
2019-04-05T07:13:50.251Z,27.50
2019-04-05T07:14:56.219Z,24.98
2019-04-05T07:16:00.575Z,25.30
2019-04-05T07:17:04.563Z,25.77
2019-04-05T07:18:09.047Z,26.68
2019-04-05T07:19:13.068Z,24.80
2019-04-05T07:20:17.060Z,26.17
2019-04-05T07:21:20.999Z,25.72
2019-04-05T07:22:36.973Z,27.02
2019-04-05T07:23:31.763Z,23.47
2019-04-05T07:24:35.690Z,23.90
2019-04-05T07:25:39.611Z,22.02
2019-04-05T07:26:43.579Z,20.82
2019-04-05T07:27:48.378Z,19.95
2019-04-05T07:28:52.896Z,19.48
2019-04-05T07:29:57.555Z,22.40
2019-04-05T07:31:01.795Z,23.35
2019-04-05T07:32:06.124Z,22.55
2019-04-05T07:33:10.121Z,28.85
2019-04-05T07:34:14.428Z,24.75
2019-04-05T07:35:18.943Z,25.12
2019-04-05T07:36:23.303Z,29.02
2019-04-05T07:37:27.153Z,23.45
2019-04-05T07:38:31.356Z,21.77
2019-04-05T07:39:35.454Z,24.60
2019-04-05T07:40:39.378Z,26.17
2019-04-05T07:41:43.543Z,27.87
2019-04-05T07:42:47.408Z,22.07
2019-04-05T07:43:51.958Z,22.37
2019-04-05T07:44:56.293Z,22.32
2019-04-05T07:46:00.462Z,21.75
2019-04-05T07:47:04.371Z,23.15
2019-04-05T07:48:08.362Z,23.87
2019-04-05T07:49:12.443Z,21.65
2019-04-05T07:50:16.682Z,20.82
2019-04-05T07:51:22.719Z,20.68
2019-04-05T07:52:26.975Z,23.52
2019-04-05T07:53:31.144Z,21.57
2019-04-05T07:54:34.978Z,21.20
2019-04-05T07:55:38.960Z,22.80
2019-04-05T07:56:46.042Z,27.70
2019-04-05T07:57:49.139Z,22.17
2019-04-05T07:58:53.026Z,22.60
2019-04-05T07:59:56.936Z,23.30
2019-04-05T08:01:02.644Z,19.87
2019-04-05T08:02:06.626Z,24.18
2019-04-05T08:03:10.853Z,23.87
2019-04-05T08:04:14.863Z,22.27
2019-04-05T08:05:18.864Z,20.85
2019-04-05T08:06:23.130Z,21.68
2019-04-05T08:07:31.358Z,20.25
2019-04-05T08:08:51.403Z,21.27
2019-04-05T08:09:55.831Z,23.87
2019-04-05T08:11:00.271Z,22.25
2019-04-05T08:12:04.685Z,21.15
2019-04-05T08:13:08.981Z,21.23
2019-04-05T08:14:14.222Z,20.20
2019-04-05T08:15:18.318Z,24.72
2019-04-05T08:16:22.971Z,26.30
2019-04-05T08:17:27.187Z,21.20
2019-04-05T08:18:31.885Z,20.02
2019-04-05T08:19:35.932Z,20.55
2019-04-05T08:20:40.404Z,24.72
2019-04-05T08:21:44.702Z,19.27
2019-04-05T08:22:48.617Z,21.60
2019-04-05T08:23:52.477Z,19.77
2019-04-05T08:24:56.880Z,22.15
2019-04-05T08:26:01.208Z,20.62
2019-04-05T08:27:05.524Z,20.82
2019-04-05T08:28:10.013Z,19.10
2019-04-05T08:29:14.059Z,21.52
2019-04-05T08:30:18.396Z,21.48
2019-04-05T08:31:22.744Z,27.98
2019-04-05T08:32:26.959Z,31.12
2019-04-05T08:33:31.239Z,21.97
2019-04-05T08:34:35.242Z,24.90
2019-04-05T08:35:39.513Z,20.32
2019-04-05T08:36:43.860Z,26.02
2019-04-05T08:37:47.703Z,26.33
2019-04-05T08:38:52.716Z,21.77
2019-04-05T08:39:57.089Z,21.65
2019-04-05T08:41:00.996Z,19.85
2019-04-05T08:42:04.992Z,21.80
2019-04-05T08:43:09.202Z,20.85
2019-04-05T08:44:13.527Z,21.85
2019-04-05T08:45:17.530Z,23.35
2019-04-05T08:46:21.375Z,21.45
2019-04-05T08:47:25.384Z,22.85
2019-04-05T08:48:29.553Z,22.50
2019-04-05T08:49:34.019Z,19.95
2019-04-05T08:50:38.310Z,23.27
2019-04-05T08:51:42.641Z,22.77
2019-04-05T08:52:47.357Z,23.77
2019-04-05T08:53:51.968Z,21.82
2019-04-05T08:54:56.770Z,22.80
2019-04-05T08:56:01.254Z,21.73
2019-04-05T08:57:05.833Z,21.82
2019-04-05T08:58:10.125Z,24.65
2019-04-05T08:59:14.000Z,22.17
2019-04-05T09:00:18.760Z,26.12
2019-04-05T09:01:22.945Z,22.25
2019-04-05T09:02:26.861Z,23.87
2019-04-05T09:03:30.910Z,23.40
2019-04-05T09:04:35.204Z,25.85
2019-04-05T09:05:39.361Z,21.42
2019-04-05T09:06:43.360Z,21.60
2019-04-05T09:07:47.767Z,22.82
2019-04-05T09:08:52.002Z,24.60
2019-04-05T09:09:56.655Z,23.42
2019-04-05T09:11:00.829Z,24.23
2019-04-05T09:12:05.207Z,25.88
2019-04-05T09:13:10.113Z,23.65
2019-04-05T09:14:14.451Z,25.60
2019-04-05T09:15:18.304Z,23.70
2019-04-05T09:16:22.293Z,21.40
2019-04-05T09:17:26.208Z,22.77
2019-04-05T09:18:30.687Z,24.82
2019-04-05T09:19:34.610Z,25.00
2019-04-05T09:20:38.939Z,24.00
2019-04-05T09:21:43.100Z,28.23
2019-04-05T09:22:46.935Z,21.52
2019-04-05T09:23:51.269Z,26.80
2019-04-05T09:24:55.615Z,25.17
2019-04-05T09:25:59.524Z,25.45
2019-04-05T09:27:04.233Z,23.45
2019-04-05T09:28:08.698Z,25.08
2019-04-05T09:29:12.550Z,21.77
2019-04-05T09:30:16.778Z,23.07
2019-04-05T09:31:20.799Z,20.70
2019-04-05T09:32:24.647Z,26.50
2019-04-05T09:33:29.272Z,22.75
2019-04-05T09:34:33.121Z,21.60
2019-04-05T09:35:37.223Z,24.43
2019-04-05T09:36:41.327Z,27.55
2019-04-05T09:37:45.586Z,25.20
2019-04-05T09:38:49.534Z,23.65
2019-04-05T09:39:53.399Z,27.30
2019-04-05T09:40:57.339Z,24.52
2019-04-05T09:42:01.438Z,23.90
2019-04-05T09:43:05.723Z,24.15
2019-04-05T09:44:09.658Z,28.90
2019-04-05T09:45:13.911Z,27.58
2019-04-05T09:46:17.758Z,29.42
2019-04-05T09:47:21.920Z,23.00
2019-04-05T09:48:26.075Z,25.00
2019-04-05T09:49:36.543Z,26.77
2019-04-05T09:50:36.208Z,23.95
2019-04-05T09:51:40.364Z,26.60
2019-04-05T09:52:44.453Z,25.95
2019-04-05T09:53:48.688Z,28.23
2019-04-05T09:54:52.525Z,25.40
2019-04-05T09:55:56.744Z,30.23
2019-04-05T09:57:00.919Z,23.20
2019-04-05T09:58:05.152Z,28.15
2019-04-05T09:59:09.311Z,26.33
2019-04-05T10:00:21.616Z,22.07
2019-04-05T10:01:25.600Z,23.90
2019-04-05T10:02:31.763Z,27.05
2019-04-05T10:03:35.225Z,22.73
2019-04-05T10:04:39.581Z,23.18
2019-04-05T10:05:43.961Z,22.60
2019-04-05T10:06:48.295Z,27.35
2019-04-05T10:07:55.320Z,24.65
2019-04-05T10:08:58.567Z,27.48
2019-04-05T10:10:02.974Z,25.45
2019-04-05T10:11:06.892Z,25.70
2019-04-05T10:12:10.801Z,26.55
2019-04-05T10:13:14.881Z,26.40
2019-04-05T10:14:18.968Z,24.18
2019-04-05T10:15:22.885Z,23.45
2019-04-05T10:16:27.047Z,25.20
2019-04-05T10:17:30.980Z,23.60
2019-04-05T10:18:35.458Z,28.47
2019-04-05T10:19:49.206Z,25.30
2019-04-05T10:20:45.020Z,27.65
2019-04-05T10:21:49.266Z,27.77
2019-04-05T10:22:53.179Z,27.80
2019-04-05T10:23:57.348Z,25.25
2019-04-05T10:25:01.196Z,26.17
2019-04-05T10:26:05.537Z,20.95
2019-04-05T10:27:09.869Z,28.05
2019-04-05T10:28:14.291Z,25.17
2019-04-05T10:29:18.362Z,26.55
2019-04-05T10:30:22.707Z,26.00
2019-04-05T10:31:26.976Z,24.15
2019-04-05T10:32:31.283Z,47.10
2019-04-05T10:33:35.796Z,32.60
2019-04-05T10:34:39.637Z,28.35
2019-04-05T10:35:43.818Z,25.52
2019-04-05T10:36:47.990Z,23.70
2019-04-05T10:37:52.260Z,29.40
2019-04-05T10:38:57.137Z,23.07
2019-04-05T10:40:01.872Z,26.73
2019-04-05T10:41:06.228Z,33.65
2019-04-05T10:42:17.659Z,27.65
2019-04-05T10:43:22.252Z,24.27
2019-04-05T10:44:26.170Z,26.00
2019-04-05T10:45:30.356Z,26.68
2019-04-05T10:46:34.566Z,29.50
2019-04-05T10:47:38.975Z,28.92
2019-04-05T10:48:43.199Z,26.75
2019-04-05T10:49:47.271Z,28.42
2019-04-05T10:50:51.698Z,33.08
2019-04-05T10:51:55.631Z,26.17
2019-04-05T10:52:59.550Z,25.97
2019-04-05T10:54:03.874Z,31.52
2019-04-05T10:55:08.515Z,24.67
2019-04-05T10:56:12.434Z,28.10
2019-04-05T10:57:16.617Z,25.82
2019-04-05T10:58:20.613Z,24.87
2019-04-05T10:59:24.534Z,22.98
2019-04-05T11:00:28.469Z,28.52
2019-04-05T11:01:32.727Z,27.90
2019-04-05T11:02:36.676Z,27.87
2019-04-05T11:03:40.845Z,33.78
2019-04-05T11:04:45.284Z,20.95
2019-04-05T11:05:51.061Z,32.95
2019-04-05T11:06:54.947Z,31.87
2019-04-05T11:07:59.020Z,28.40
2019-04-05T11:09:05.699Z,27.10
2019-04-05T11:10:10.478Z,26.75
2019-04-05T11:11:15.015Z,24.92
2019-04-05T11:12:20.193Z,28.87
2019-04-05T11:13:24.795Z,23.75
2019-04-05T11:14:29.826Z,25.00
2019-04-05T11:15:34.243Z,26.65
2019-04-05T11:16:39.693Z,29.95
2019-04-05T11:17:44.304Z,28.20
2019-04-05T11:18:48.902Z,23.00
2019-04-05T11:19:53.966Z,23.67
2019-04-05T11:20:58.398Z,25.50
2019-04-05T11:22:03.204Z,26.20
2019-04-05T11:23:07.585Z,25.30
2019-04-05T11:24:12.007Z,23.25
2019-04-05T11:25:16.815Z,24.95
2019-04-05T11:26:21.199Z,24.43
2019-04-05T11:27:25.900Z,23.95
2019-04-05T11:28:30.457Z,24.15
2019-04-05T11:29:34.921Z,23.95
2019-04-05T11:30:47.220Z,25.40
2019-04-05T11:31:57.326Z,25.43
2019-04-05T11:32:58.062Z,25.27
2019-04-05T11:34:02.300Z,23.47
2019-04-05T11:35:08.762Z,24.50
2019-04-05T11:36:14.354Z,23.67
2019-04-05T11:37:19.661Z,23.42
2019-04-05T11:38:25.662Z,21.75
2019-04-05T11:39:31.846Z,23.25
2019-04-05T11:40:36.461Z,23.32
2019-04-05T11:41:43.333Z,25.65
2019-04-05T11:42:48.703Z,31.93
2019-04-05T11:43:54.406Z,23.42
2019-04-05T11:45:00.651Z,28.70
2019-04-05T11:46:05.042Z,31.52
2019-04-05T11:47:09.885Z,33.88
2019-04-05T11:48:14.326Z,41.70
2019-04-05T11:49:18.737Z,22.45
2019-04-05T11:50:34.006Z,25.02
2019-04-05T11:51:28.638Z,21.50
2019-04-05T11:52:33.496Z,24.80
2019-04-05T11:53:37.432Z,25.12
2019-04-05T11:54:41.351Z,24.00
2019-04-05T11:55:46.793Z,23.90
2019-04-05T11:56:51.203Z,24.55
2019-04-05T11:57:55.556Z,26.15
2019-04-05T11:58:59.676Z,31.07
2019-04-05T12:00:06.603Z,26.30
2019-04-05T12:01:25.444Z,27.73
2019-04-05T12:02:54.590Z,26.62
2019-04-05T12:03:59.000Z,24.23
2019-04-05T12:05:03.173Z,24.52
2019-04-05T12:06:07.088Z,23.32
2019-04-05T12:07:11.172Z,25.10
2019-04-05T12:08:15.021Z,23.27
2019-04-05T12:09:19.115Z,21.37
2019-04-05T12:10:23.375Z,21.17
2019-04-05T12:11:27.796Z,24.55
2019-04-05T12:12:31.636Z,24.05
2019-04-05T12:13:35.740Z,23.25
2019-04-05T12:14:39.977Z,23.67
2019-04-05T12:15:43.964Z,23.12
2019-04-05T12:16:47.807Z,25.60
2019-04-05T12:17:52.471Z,22.07
2019-04-05T12:18:58.860Z,21.23
2019-04-05T12:20:02.719Z,23.85
2019-04-05T12:21:07.543Z,23.02
2019-04-05T12:22:11.388Z,24.82
2019-04-05T12:23:15.589Z,25.05
2019-04-05T12:24:19.909Z,22.70
2019-04-05T12:25:24.121Z,23.27
2019-04-05T12:26:28.334Z,21.95
2019-04-05T12:27:32.741Z,24.43
2019-04-05T12:28:37.315Z,23.47
2019-04-05T12:29:41.456Z,21.82
2019-04-05T12:30:47.146Z,26.65
2019-04-05T12:31:53.422Z,23.50
2019-04-05T12:32:57.066Z,24.00
2019-04-05T12:34:01.255Z,24.20
2019-04-05T12:35:08.215Z,24.35
2019-04-05T12:36:11.868Z,26.90
2019-04-05T12:37:16.324Z,24.47
2019-04-05T12:38:33.550Z,21.60
2019-04-05T12:39:38.072Z,23.47
2019-04-05T12:40:42.352Z,21.80
2019-04-05T12:41:46.994Z,25.23
2019-04-05T12:42:53.037Z,22.37
2019-04-05T12:43:57.161Z,25.43
2019-04-05T12:45:01.337Z,26.57
2019-04-05T12:46:05.803Z,24.92
2019-04-05T12:47:09.865Z,22.82
2019-04-05T12:48:15.997Z,24.18
2019-04-05T12:49:20.492Z,24.98
2019-04-05T12:50:24.749Z,23.42
2019-04-05T12:51:28.954Z,22.77
2019-04-05T12:52:33.531Z,21.82
2019-04-05T12:53:37.447Z,23.92
2019-04-05T12:54:41.632Z,26.52
2019-04-05T12:55:45.998Z,24.50
2019-04-05T12:56:50.555Z,24.82
2019-04-05T12:57:56.173Z,22.07
2019-04-05T12:59:02.126Z,21.00
2019-04-05T13:00:09.117Z,25.12
2019-04-05T13:01:13.243Z,27.05
2019-04-05T13:02:23.625Z,27.87
2019-04-05T13:03:23.474Z,26.15
2019-04-05T13:04:27.349Z,26.10
2019-04-05T13:05:31.470Z,28.45
2019-04-05T13:06:35.604Z,30.62
2019-04-05T13:07:39.563Z,29.00
2019-04-05T13:08:43.752Z,34.75
2019-04-05T13:09:47.937Z,27.87
2019-04-05T13:10:55.587Z,24.87
2019-04-05T13:11:57.598Z,28.10
2019-04-05T13:13:01.582Z,24.52
2019-04-05T13:14:05.803Z,26.97
2019-04-05T13:15:12.900Z,28.70
2019-04-05T13:16:15.812Z,23.95
2019-04-05T13:17:19.805Z,25.95
2019-04-05T13:18:25.329Z,25.62
2019-04-05T13:19:30.596Z,25.55
2019-04-05T13:20:35.475Z,31.55
2019-04-05T13:21:40.071Z,27.98
2019-04-05T13:22:44.284Z,30.00
2019-04-05T13:23:48.553Z,26.62
2019-04-05T13:24:53.135Z,27.35
2019-04-05T13:25:56.983Z,27.32
2019-04-05T13:27:02.040Z,27.22
2019-04-05T13:28:13.285Z,27.62
2019-04-05T13:29:12.600Z,23.55
2019-04-05T13:30:18.676Z,28.32
2019-04-05T13:31:23.655Z,26.62
2019-04-05T13:32:28.091Z,27.10
2019-04-05T13:33:32.960Z,23.75
2019-04-05T13:34:37.537Z,24.20
2019-04-05T13:35:42.000Z,28.02
2019-04-05T13:36:46.550Z,24.85
2019-04-05T13:37:51.055Z,21.27
2019-04-05T13:38:59.589Z,27.98
2019-04-05T13:40:01.962Z,28.00
2019-04-05T13:41:06.044Z,24.05
2019-04-05T13:42:10.393Z,26.62
2019-04-05T13:43:17.635Z,25.08
2019-04-05T13:44:20.905Z,23.70
2019-04-05T13:45:25.239Z,23.98
2019-04-05T13:46:29.497Z,27.15
2019-04-05T13:47:37.729Z,27.32
2019-04-05T13:48:40.160Z,22.65
2019-04-05T13:49:45.209Z,23.87
2019-04-05T13:50:49.425Z,22.27
2019-04-05T13:51:53.340Z,26.33
2019-04-05T13:52:58.157Z,24.98
2019-04-05T13:54:02.395Z,22.05